Time,TemperatureF,DewpointF,PressureIn,WindDirection,WindDirectionDegrees,WindSpeedMPH,WindSpeedGustMPH,Humidity,HourlyPrecipIn,Conditions,Clouds,dailyrainin,SoftwareType,DateUTC
2013-03-15 00:00:00,37.0,36.0,-100.00,North,-999,-999.0,-999.0,95,0.05,,,-99.99,,2013-03-15 07:00:00,
2013-03-15 01:00:00,36.0,34.0,-100.00,North,-999,-999.0,-999.0,93,0.02,,,-99.99,,2013-03-15 08:00:00,
2013-03-15 02:00:00,36.0,33.0,-100.00,North,-999,-999.0,-999.0,90,0.01,,,-99.99,,2013-03-15 09:00:00,
2013-03-15 03:00:00,35.0,33.0,-100.00,North,-999,-999.0,-999.0,91,0.00,,,-99.99,,2013-03-15 10:00:00,
2013-03-15 04:00:00,35.0,32.0,-100.00,North,-999,-999.0,-999.0,89,0.00,,,-99.99,,2013-03-15 11:00:00,
2013-03-15 05:00:00,35.0,31.0,-100.00,North,-999,-999.0,-999.0,85,0.00,,,-99.99,,2013-03-15 12:00:00,
2013-03-15 06:00:00,35.0,31.0,-100.00,North,-999,-999.0,-999.0,84,0.00,,,-99.99,,2013-03-15 13:00:00,
2013-03-15 07:00:00,34.0,29.0,-100.00,North,-999,-999.0,-999.0,81,0.00,,,-99.99,,2013-03-15 14:00:00,
2013-03-15 08:00:00,35.0,29.0,-100.00,North,-999,-999.0,-999.0,79,0.00,,,-99.99,,2013-03-15 15:00:00,
2013-03-15 09:00:00,35.0,29.0,-100.00,North,-999,-999.0,-999.0,78,0.00,,,-99.99,,2013-03-15 16:00:00,
2013-03-15 10:00:00,35.0,28.0,-100.00,North,-999,-999.0,-999.0,75,0.00,,,-99.99,,2013-03-15 17:00:00,
2013-03-15 11:00:00,37.0,26.0,-100.00,North,-999,-999.0,-999.0,65,0.00,,,-99.99,,2013-03-15 18:00:00,
2013-03-15 12:00:00,39.0,29.0,-100.00,North,-999,-999.0,-999.0,68,0.00,,,-99.99,,2013-03-15 19:00:00,
2013-03-15 13:00:00,42.0,30.0,-100.00,North,-999,-999.0,-999.0,63,0.00,,,-99.99,,2013-03-15 20:00:00,
2013-03-15 14:00:00,42.0,31.0,-100.00,North,-999,-999.0,-999.0,65,0.00,,,-99.99,,2013-03-15 21:00:00,
2013-03-15 15:00:00,40.0,31.0,-100.00,North,-999,-999.0,-999.0,71,0.00,,,-99.99,,2013-03-15 22:00:00,
2013-03-15 16:00:00,40.0,31.0,-100.00,North,-999,-999.0,-999.0,70,0.00,,,-99.99,,2013-03-15 23:00:00,
2013-03-15 17:00:00,38.0,31.0,-100.00,North,-999,-999.0,-999.0,77,0.01,,,-99.99,,2013-03-16 00:00:00,
2013-03-15 18:00:00,38.0,31.0,-100.00,North,-999,-999.0,-999.0,77,0.00,,,-99.99,,2013-03-16 01:00:00,
2013-03-15 19:00:00,36.0,31.0,-100.00,North,-999,-999.0,-999.0,82,0.00,,,-99.99,,2013-03-16 02:00:00,
2013-03-15 20:00:00,36.0,31.0,-100.00,North,-999,-999.0,-999.0,81,0.00,,,-99.99,,2013-03-16 03:00:00,
2013-03-15 21:00:00,35.0,30.0,-100.00,North,-999,-999.0,-999.0,83,0.00,,,-99.99,,2013-03-16 04:00:00,
2013-03-15 22:00:00,35.0,30.0,-100.00,North,-999,-999.0,-999.0,83,0.00,,,-99.99,,2013-03-16 05:00:00,
2013-03-15 23:00:00,35.0,31.0,-100.00,North,-999,-999.0,-999.0,84,0.00,,,-99.99,,2013-03-16 06:00:00,